Latest Weather Observations for Lihou Reef Lighthouse

IDQ60801

Issued at 2:22 pm EST Monday 30 March 2020 (issued every 10 minutes, with the page automatically refreshed every 10 minutes)

About weather observations | Map of weather stations | Latest weather observations for QLD | Other Formats
Station Details ID: 200880 Name: LIHOU REEF LIGHTHOUSE Lat: -17.13 Lon: 152.15 Height: 10.26 m
Data from the previous 72 hours. | See also: Recent months at Lihou Reef Lighthouse
Date/Time
EST
Temp
°C
App
Temp
°C
Dew
Point
°C
Rel
Hum
%
Delta-T
°C
Wind Press
QNH
hPa
Press
MSL
hPa
Rain since
9am
mm
Dir  Spd
km/h
Gust
km/h
Spd
kts
Gust
kts
30/02:00pm 28.1 - - - - SE 28 33 15 18 1009.1 1009.0 -
30/01:30pm 28.1 - - - - ESE 30 33 16 18 1009.2 1009.1 -
30/01:00pm 28.3 - - - - ESE 30 33 16 18 1009.2 1009.1 -
30/12:30pm 28.2 - - - - ESE 30 35 16 19 1009.5 1009.4 -
30/12:00pm 28.2 - - - - ESE 32 35 17 19 1010.1 1010.0 -
30/11:30am 28.2 - - - - ESE 32 39 17 21 1010.7 1010.6 -
30/11:00am 28.3 - - - - ESE 33 37 18 20 1011.2 1011.1 -
30/10:30am 28.4 - - - - ESE 33 39 18 21 1011.4 1011.3 -
30/10:00am 28.3 - - - - ESE 32 37 17 20 1011.6 1011.5 -
30/09:30am 28.3 - - - - ESE 32 37 17 20 1011.8 1011.7 -
30/09:00am 28.2 - - - - ESE 33 37 18 20 1012.0 1011.9 -
30/08:30am 28.3 - - - - ESE 32 39 17 21 1012.0 1011.9 -
30/08:00am 28.1 - - - - ESE 33 41 18 22 1011.7 1011.6 -
30/07:30am 27.6 - - - - SE 33 44 18 24 1011.4 1011.3 -
30/07:00am 28.0 - - - - SE 35 41 19 22 1010.9 1010.8 -
30/06:30am 27.5 - - - - SE 33 43 18 23 1010.3 1010.2 -
30/06:00am 27.6 - - - - ESE 37 44 20 24 1010.0 1009.9 -
30/05:30am 27.8 - - - - ESE 39 46 21 25 1009.6 1009.5 -
30/05:00am 27.5 - - - - SE 35 43 19 23 1009.3 1009.2 -
30/04:30am 27.6 - - - - ESE 32 39 17 21 1009.3 1009.2 -
30/04:00am 27.6 - - - - ESE 37 43 20 23 1009.1 1009.0 -
30/03:30am 27.7 - - - - ESE 35 43 19 23 1009.1 1009.0 -
30/03:00am 27.6 - - - - ESE 35 43 19 23 1009.3 1009.2 -
30/02:30am 27.7 - - - - ESE 39 48 21 26 1009.4 1009.3 -
30/02:00am 27.7 - - - - ESE 39 46 21 25 1009.5 1009.4 -
30/01:30am 27.9 - - - - ESE 35 43 19 23 1009.7 1009.6 -
30/01:00am 27.8 - - - - ESE 37 43 20 23 1009.9 1009.8 -
30/12:30am 27.9 - - - - ESE 37 44 20 24 1010.3 1010.2 -
30/12:00am 27.9 - - - - ESE 35 43 19 23 1010.7 1010.6 -
 
Date/Time
EST
Temp
°C
App
Temp
°C
Dew
Point
°C
Rel
Hum
%
Delta-T
°C
Wind Press
QNH
hPa
Press
MSL
hPa
Rain since
9am
mm
Dir  Spd
km/h
Gust
km/h
Spd
kts
Gust
kts
29/11:30pm 27.8 - - - - ESE 37 44 20 24 1010.7 1010.6 -
29/11:00pm 27.1 - - - - ESE 37 46 20 25 1011.3 1011.2 -
29/10:30pm 26.5 - - - - E 30 33 16 18 1011.5 1011.4 -
29/10:00pm 25.9 - - - - ESE 28 35 15 19 1011.8 1011.7 -
29/09:42pm 26.3 - - - - ESE 39 59 21 32 1011.4 1011.3 -
29/09:30pm 27.4 - - - - ESE 32 37 17 20 1011.7 1011.6 -
29/09:00pm 26.6 - - - - E 33 41 18 22 1011.8 1011.7 -
29/08:36pm 27.4 - - - - ESE 30 54 16 29 1011.5 1011.4 -
29/08:30pm 27.5 - - - - ESE 26 32 14 17 1011.4 1011.3 -
29/08:00pm 27.4 - - - - ESE 35 46 19 25 1011.0 1010.9 -
29/07:30pm 27.9 - - - - ESE 32 37 17 20 1010.9 1010.8 -
29/07:00pm 27.5 - - - - ESE 28 43 15 23 1010.6 1010.5 -
29/06:30pm 27.8 - - - - ESE 26 37 14 20 1010.2 1010.1 -
29/06:00pm 28.0 - - - - ESE 30 35 16 19 1009.9 1009.8 -
29/05:30pm 27.8 - - - - ESE 32 37 17 20 1009.3 1009.2 -
29/05:00pm 27.8 - - - - ESE 28 32 15 17 1009.2 1009.1 -
29/04:30pm 27.9 - - - - ESE 28 32 15 17 1008.9 1008.8 -
29/04:00pm 27.7 - - - - ESE 30 33 16 18 1008.6 1008.5 -
29/03:30pm 26.2 - - - - E 30 41 16 22 1008.6 1008.5 -
29/03:00pm 27.1 - - - - SE 33 44 18 24 1008.2 1008.1 -
29/02:30pm 27.8 - - - - ESE 32 35 17 19 1008.4 1008.3 -
29/02:00pm 28.3 - - - - ESE 30 35 16 19 1008.6 1008.5 -
29/01:30pm 27.8 - - - - ESE 26 33 14 18 1008.7 1008.6 -
29/01:00pm 28.0 - - - - ESE 24 30 13 16 1009.2 1009.1 -
29/12:30pm 27.4 - - - - ESE 26 32 14 17 1009.4 1009.3 -
29/12:00pm 28.1 - - - - ESE 28 32 15 17 1009.8 1009.7 -
29/11:30am 28.0 - - - - ESE 30 35 16 19 1010.4 1010.3 -
29/11:00am 28.0 - - - - ESE 33 39 18 21 1010.7 1010.6 -
29/10:30am 27.6 - - - - ESE 32 37 17 20 1010.9 1010.8 -
29/10:00am 27.9 - - - - ESE 35 41 19 22 1011.0 1010.9 -
29/09:30am 27.7 - - - - ESE 35 41 19 22 1011.1 1011.0 -
29/09:00am 27.9 - - - - ESE 30 35 16 19 1011.3 1011.2 -
29/08:30am 27.5 - - - - ESE 28 33 15 18 1011.3 1011.2 -
29/08:00am 27.2 - - - - ESE 35 41 19 22 1010.5 1010.4 -
29/07:30am 27.0 - - - - ESE 28 33 15 18 1010.5 1010.4 -
29/07:00am 25.9 - - - - SE 33 43 18 23 1010.0 1009.9 -
29/06:30am 25.3 - - - - ESE 44 52 24 28 1009.8 1009.7 -
29/06:00am 27.6 - - - - SE 32 37 17 20 1009.6 1009.5 -
29/05:30am 27.0 - - - - ESE 33 39 18 21 1009.3 1009.2 -
29/05:16am 26.7 - - - - ESE 32 41 17 22 1009.0 1008.9 -
29/05:00am 26.5 - - - - E 33 37 18 20 1009.0 1008.9 -
29/04:57am 26.7 - - - - ESE 33 41 18 22 1009.0 1008.9 -
29/04:30am 27.2 - - - - ESE 37 44 20 24 1008.6 1008.5 -
29/04:00am 27.1 - - - - SE 35 41 19 22 1008.6 1008.5 -
29/03:30am 26.7 - - - - SE 35 41 19 22 1008.5 1008.4 -
29/03:00am 26.9 - - - - ESE 35 43 19 23 1008.8 1008.7 -
29/02:30am 27.3 - - - - SE 35 43 19 23 1008.9 1008.8 -
29/02:00am 27.5 - - - - ESE 35 41 19 22 1009.2 1009.1 -
29/01:30am 27.5 - - - - ESE 35 43 19 23 1009.3 1009.2 -
29/01:00am 27.8 - - - - ESE 35 43 19 23 1009.7 1009.6 -
29/12:30am 27.9 - - - - ESE 33 39 18 21 1009.9 1009.8 -
29/12:00am 27.7 - - - - SE 32 39 17 21 1010.1 1010.0 -
 
Date/Time
EST
Temp
°C
App
Temp
°C
Dew
Point
°C
Rel
Hum
%
Delta-T
°C
Wind Press
QNH
hPa
Press
MSL
hPa
Rain since
9am
mm
Dir  Spd
km/h
Gust
km/h
Spd
kts
Gust
kts
28/11:30pm 28.0 - - - - ESE 32 35 17 19 1010.6 1010.5 -
28/11:00pm 27.3 - - - - ESE 33 41 18 22 1010.8 1010.7 -
28/10:30pm 26.2 - - - - ESE 33 44 18 24 1011.2 1011.1 -
28/10:00pm 28.1 - - - - ESE 24 28 13 15 1011.0 1010.9 -
28/09:30pm 28.1 - - - - ESE 28 33 15 18 1011.0 1010.9 -
28/09:00pm 28.1 - - - - ESE 26 32 14 17 1010.9 1010.8 -
28/08:30pm 28.2 - - - - ESE 28 32 15 17 1010.6 1010.5 -
28/08:00pm 28.3 - - - - ESE 26 30 14 16 1010.3 1010.2 -
28/07:30pm 28.1 - - - - ESE 28 32 15 17 1010.1 1010.0 -
28/07:00pm 28.1 - - - - ESE 30 35 16 19 1009.9 1009.8 -
28/06:30pm 28.1 - - - - ESE 30 33 16 18 1009.6 1009.5 -
28/06:00pm 28.1 - - - - ESE 32 37 17 20 1009.5 1009.4 -
28/05:30pm 27.8 - - - - SE 30 39 16 21 1009.1 1009.0 -
28/05:00pm 28.1 - - - - SE 30 33 16 18 1008.8 1008.7 -
28/04:30pm 28.0 - - - - SE 28 32 15 17 1008.8 1008.7 -
28/04:00pm 28.2 - - - - SE 28 35 15 19 1008.7 1008.6 -
28/03:30pm 28.1 - - - - ESE 30 35 16 19 1008.6 1008.5 -
28/03:00pm 28.1 - - - - ESE 30 35 16 19 1008.6 1008.5 -
28/02:30pm 28.2 - - - - ESE 26 32 14 17 1008.9 1008.8 -
28/02:00pm 28.2 - - - - ESE 30 35 16 19 1009.2 1009.1 -
28/01:30pm 28.4 - - - - ESE 30 35 16 19 1009.5 1009.4 -
28/01:00pm 28.2 - - - - ESE 32 35 17 19 1009.6 1009.5 -
28/12:30pm 28.4 - - - - ESE 32 35 17 19 1010.0 1009.9 -
28/12:00pm 28.4 - - - - ESE 30 33 16 18 1010.5 1010.4 -
28/11:30am 28.4 - - - - ESE 32 35 17 19 1010.8 1010.7 -
28/11:00am 28.4 - - - - ESE 33 37 18 20 1011.1 1011.0 -
28/10:30am 28.1 - - - - ESE 32 37 17 20 1011.2 1011.1 -
28/10:00am 28.3 - - - - ESE 33 37 18 20 1011.4 1011.3 -
28/09:30am 27.4 - - - - SE 26 35 14 19 1011.4 1011.3 -
28/09:00am 26.1 - - - - ESE 32 44 17 24 1011.4 1011.3 -
28/08:30am 27.0 - - - - ESE 30 35 16 19 1011.1 1011.0 -
28/08:00am 26.5 - - - - ESE 37 43 20 23 1010.7 1010.6 -
28/07:30am 27.0 - - - - ESE 41 46 22 25 1010.3 1010.2 -
28/07:00am 26.9 - - - - ESE 37 43 20 23 1009.9 1009.8 -
28/06:30am 27.0 - - - - ESE 35 43 19 23 1009.6 1009.5 -
28/06:00am 27.8 - - - - ESE 32 39 17 21 1009.6 1009.5 -
28/05:30am 27.9 - - - - ESE 30 33 16 18 1009.4 1009.3 -
28/05:00am 27.9 - - - - ESE 30 33 16 18 1009.3 1009.2 -
28/04:30am 27.9 - - - - ESE 32 35 17 19 1009.3 1009.2 -
28/04:00am 27.9 - - - - ESE 33 39 18 21 1009.3 1009.2 -
28/03:30am 27.9 - - - - ESE 33 37 18 20 1009.5 1009.4 -
28/03:00am 28.0 - - - - ESE 32 35 17 19 1009.6 1009.5 -
28/02:30am 27.9 - - - - ESE 33 39 18 21 1009.7 1009.6 -
28/02:00am 27.8 - - - - ESE 32 37 17 20 1009.9 1009.8 -
28/01:30am 27.9 - - - - ESE 30 35 16 19 1010.5 1010.4 -
28/01:00am 27.9 - - - - ESE 32 37 17 20 1010.6 1010.5 -
28/12:30am 27.9 - - - - ESE 33 39 18 21 1010.9 1010.8 -
28/12:00am 28.0 - - - - ESE 33 43 18 23 1011.1 1011.0 -
 
Date/Time
EST
Temp
°C
App
Temp
°C
Dew
Point
°C
Rel
Hum
%
Delta-T
°C
Wind Press
QNH
hPa
Press
MSL
hPa
Rain since
9am
mm
Dir  Spd
km/h
Gust
km/h
Spd
kts
Gust
kts
27/11:30pm 27.8 - - - - SE 28 33 15 18 1011.3 1011.2 -
27/11:00pm 27.4 - - - - ESE 26 28 14 15 1011.8 1011.7 -
27/10:30pm 26.7 - - - - SE 28 30 15 16 1012.0 1011.9 -
27/10:00pm 27.2 - - - - ESE 30 33 16 18 1012.0 1011.9 -
27/09:30pm 27.7 - - - - ESE 28 33 15 18 1011.9 1011.8 -
27/09:00pm 27.5 - - - - ESE 20 28 11 15 1012.0 1011.9 -
27/08:30pm 26.8 - - - - ESE 24 28 13 15 1012.0 1011.9 -
27/08:00pm 26.4 - - - - ESE 32 37 17 20 1011.8 1011.7 -
27/07:30pm 26.6 - - - - E 35 41 19 22 1011.5 1011.4 -
27/07:00pm 26.5 - - - - E 33 44 18 24 1011.1 1011.0 -
27/06:30pm 28.2 - - - - ESE 26 30 14 16 1011.0 1010.9 -
27/06:00pm 27.8 - - - - ESE 20 24 11 13 1010.5 1010.4 -
27/05:30pm 27.0 - - - - E 24 28 13 15 1010.4 1010.3 -
27/05:00pm 26.9 - - - - ESE 32 37 17 20 1010.2 1010.1 -
27/04:30pm 28.0 - - - - SE 24 28 13 15 1010.1 1010.0 -
27/04:00pm 27.9 - - - - SE 22 28 12 15 1010.1 1010.0 -
27/03:30pm 27.9 - - - - SE 22 26 12 14 1010.2 1010.1 -
27/03:00pm 27.8 - - - - SE 20 26 11 14 1010.1 1010.0 -
27/02:30pm 27.8 - - - - SE 24 28 13 15 1010.2 1010.1 -

Other formats

Comma delimited format used in spreadsheet applications
http://www.bom.gov.au/fwo/IDQ60801/IDQ60801.94293.axf

JavaScript Object Notation format (JSON) in row-major order
http://www.bom.gov.au/fwo/IDQ60801/IDQ60801.94293.json

Data quality

Most of these data are generated automatically and are frequently updated. Quality checks on data are not normally performed. It is possible for incorrect values to appear. Refer to information at About Latest Weather Observations and please check the disclaimer before using these data.